Time;durP1;ratioP1;P1;durP2;ratioP2;P2;SDS_P1;SDS_P2;PMS_P1;PMS_P2;Temp;Humidity;BMP_temperature;BMP_pressure;BME280_temperature;BME280_humidity;BME280_pressure;Samples;Min_cycle;Max_cycle;Signal;HPM_P1;HPM_P2
2023/05/27 00:00:09;;;;;;;15.98;3.20;;;8.30;99.90;;;;;;4947281;29;20051;-77
2023/05/27 00:02:35;;;;;;;16.17;3.67;;;8.30;99.90;;;;;;4947609;29;20094;-76
2023/05/27 00:05:02;;;;;;;11.65;3.88;;;8.30;99.90;;;;;;4947131;28;20083;-76
2023/05/27 00:07:30;;;;;;;12.35;3.28;;;8.30;99.90;;;;;;4951454;28;20737;-76
2023/05/27 00:09:57;;;;;;;16.40;3.30;;;8.30;99.90;;;;;;4963439;28;20699;-77
2023/05/27 00:12:23;;;;;;;12.95;3.38;;;8.20;99.90;;;;;;4948610;29;20146;-76
2023/05/27 00:14:48;;;;;;;16.05;3.75;;;8.20;99.90;;;;;;4962989;28;20142;-77
2023/05/27 00:17:14;;;;;;;10.43;2.97;;;8.10;99.90;;;;;;4948297;29;20058;-76
2023/05/27 00:19:47;;;;;;;12.45;2.95;;;8.10;99.90;;;;;;4950228;28;20043;-76
2023/05/27 00:22:13;;;;;;;14.32;2.85;;;8.10;99.90;;;;;;4931754;29;20055;-76
2023/05/27 00:24:41;;;;;;;15.27;4.10;;;8.00;99.90;;;;;;4949032;29;20039;-76
2023/05/27 00:27:07;;;;;;;15.18;4.40;;;8.00;99.90;;;;;;4947330;29;20527;-76
2023/05/27 00:29:33;;;;;;;9.23;3.47;;;7.90;99.90;;;;;;4952036;28;20078;-76
2023/05/27 00:32:02;;;;;;;11.85;3.28;;;7.90;99.90;;;;;;4957878;28;20126;-76
2023/05/27 00:34:28;;;;;;;14.57;3.50;;;7.80;99.90;;;;;;4947992;29;20053;-75
2023/05/27 00:36:54;;;;;;;11.80;3.55;;;7.80;99.90;;;;;;4946897;29;20130;-76
2023/05/27 00:39:20;;;;;;;14.32;4.35;;;7.80;99.90;;;;;;4947894;29;20527;-77
2023/05/27 00:41:49;;;;;;;15.43;3.40;;;7.80;99.90;;;;;;4947741;28;20639;-76
2023/05/27 00:44:15;;;;;;;14.00;3.65;;;7.80;99.90;;;;;;4946935;29;20564;-76
2023/05/27 00:46:44;;;;;;;14.30;3.38;;;7.70;99.90;;;;;;4947126;28;20138;-76
2023/05/27 00:49:11;;;;;;;11.45;3.20;;;7.70;99.90;;;;;;4946929;28;20488;-76
2023/05/27 00:51:37;;;;;;;10.93;3.45;;;7.60;99.90;;;;;;4952640;28;20074;-76
2023/05/27 00:54:03;;;;;;;14.05;3.42;;;8.00;99.90;;;;;;4935061;29;20079;-76
2023/05/27 00:56:28;;;;;;;17.88;3.75;;;7.60;99.90;;;;;;4945389;29;20125;-76
2023/05/27 00:58:54;;;;;;;8.68;2.97;;;7.50;99.90;;;;;;4931763;29;20569;-76
2023/05/27 01:01:20;;;;;;;14.80;3.42;;;7.50;99.90;;;;;;4963629;28;20051;-76
2023/05/27 01:03:47;;;;;;;15.93;3.83;;;7.50;99.90;;;;;;4947416;28;20039;-76
2023/05/27 01:06:30;;;;;;;11.98;4.03;;;7.40;99.90;;;;;;4947333;29;20730;-76
2023/05/27 01:09:27;;;;;;;9.85;3.13;;;7.40;99.90;;;;;;4947806;29;20043;-76
2023/05/27 01:11:59;;;;;;;13.13;3.15;;;7.40;99.90;;;;;;4923532;29;20058;-76
2023/05/27 01:14:26;;;;;;;12.70;3.80;;;7.30;99.90;;;;;;4933374;29;20050;-76
2023/05/27 01:16:56;;;;;;;16.23;3.83;;;7.30;99.90;;;;;;4948879;29;20110;-76
2023/05/27 01:19:33;;;;;;;13.23;3.43;;;7.30;99.90;;;;;;4953609;28;20058;-76
2023/05/27 01:22:01;;;;;;;14.88;3.90;;;7.20;99.90;;;;;;4965275;28;20059;-83
2023/05/27 01:24:27;;;;;;;11.50;3.50;;;7.20;99.90;;;;;;4949904;28;20051;-83
2023/05/27 01:26:53;;;;;;;10.05;3.33;;;7.20;99.90;;;;;;4949201;29;20039;-83
2023/05/27 01:29:19;;;;;;;10.80;3.75;;;7.20;99.90;;;;;;4965188;28;20046;-83
2023/05/27 01:32:05;;;;;;;11.07;3.33;;;7.20;99.90;;;;;;4948490;29;20118;-83
2023/05/27 01:34:41;;;;;;;13.27;3.30;;;7.10;99.90;;;;;;4947808;28;20191;-83
2023/05/27 01:37:13;;;;;;;12.27;3.42;;;7.10;99.90;;;;;;4945441;29;20058;-82
2023/05/27 01:39:40;;;;;;;10.77;3.25;;;7.10;99.90;;;;;;4936935;29;20046;-82
2023/05/27 01:42:09;;;;;;;13.85;3.80;;;7.10;99.90;;;;;;4943346;28;20308;-83
2023/05/27 01:44:36;;;;;;;11.73;3.13;;;7.10;99.90;;;;;;4948290;28;20480;-82
2023/05/27 01:47:02;;;;;;;12.40;3.70;;;7.10;99.90;;;;;;4948035;29;20105;-83
2023/05/27 01:49:29;;;;;;;15.43;3.72;;;7.00;99.90;;;;;;4947849;29;20066;-82
2023/05/27 01:51:55;;;;;;;14.60;3.78;;;7.80;99.90;;;;;;4927832;29;20047;-82
2023/05/27 01:54:21;;;;;;;13.30;3.38;;;7.00;99.90;;;;;;4944023;28;20043;-82
2023/05/27 01:56:47;;;;;;;10.13;3.63;;;6.90;99.90;;;;;;4930463;29;20039;-82
2023/05/27 01:59:13;;;;;;;14.48;4.00;;;6.90;99.90;;;;;;4946619;29;20094;-82
2023/05/27 02:01:40;;;;;;;14.95;3.70;;;6.90;99.90;;;;;;4948654;29;20543;-83
2023/05/27 02:04:05;;;;;;;16.40;3.70;;;6.90;99.90;;;;;;4943245;29;20138;-82
2023/05/27 02:06:32;;;;;;;14.30;3.58;;;6.80;99.90;;;;;;4930385;29;20135;-82
2023/05/27 02:08:58;;;;;;;11.13;3.65;;;7.20;99.90;;;;;;4962632;28;20043;-82
2023/05/27 02:11:23;;;;;;;12.38;3.75;;;6.80;99.90;;;;;;4927160;29;20761;-82
2023/05/27 02:13:49;;;;;;;13.68;3.50;;;6.80;99.90;;;;;;4958912;28;20090;-82
2023/05/27 02:16:15;;;;;;;10.95;2.88;;;6.70;99.90;;;;;;4940179;28;20069;-82
2023/05/27 02:18:41;;;;;;;10.25;3.60;;;6.70;99.90;;;;;;4930683;28;20503;-82
2023/05/27 02:21:07;;;;;;;10.07;3.60;;;6.70;99.90;;;;;;4947819;28;20083;-81
2023/05/27 02:23:33;;;;;;;11.18;3.60;;;6.70;99.90;;;;;;4946767;29;20082;-82
2023/05/27 02:26:00;;;;;;;11.88;3.13;;;6.70;99.90;;;;;;4946312;29;20106;-83
2023/05/27 02:28:26;;;;;;;11.80;3.83;;;6.70;99.90;;;;;;4947455;28;20126;-83
2023/05/27 02:30:52;;;;;;;8.93;3.55;;;6.70;99.90;;;;;;4946689;28;20049;-82
2023/05/27 02:33:18;;;;;;;11.95;3.00;;;6.70;99.90;;;;;;4946302;29;20524;-82
2023/05/27 02:35:43;;;;;;;12.15;3.63;;;6.70;99.90;;;;;;4945364;29;20070;-82
2023/05/27 02:38:09;;;;;;;12.05;3.38;;;6.70;99.90;;;;;;4931118;29;20110;-82
2023/05/27 02:40:35;;;;;;;10.98;3.53;;;6.70;99.90;;;;;;4947088;28;20039;-82
2023/05/27 02:43:00;;;;;;;14.32;4.20;;;6.90;99.90;;;;;;4945125;29;20058;-83
2023/05/27 02:45:26;;;;;;;13.13;3.53;;;6.70;99.90;;;;;;4931414;29;20055;-82
2023/05/27 02:47:52;;;;;;;10.25;3.55;;;6.70;99.90;;;;;;4930344;29;20106;-82
2023/05/27 02:50:18;;;;;;;15.18;3.42;;;6.70;99.90;;;;;;4947555;29;20057;-82
2023/05/27 02:52:43;;;;;;;11.73;3.60;;;6.70;99.90;;;;;;4962684;28;20646;-81
2023/05/27 02:55:09;;;;;;;10.50;3.53;;;6.70;99.90;;;;;;4962651;28;20043;-82
2023/05/27 02:57:35;;;;;;;12.80;3.85;;;6.90;99.90;;;;;;4947887;28;20050;-82
2023/05/27 03:00:01;;;;;;;10.98;3.78;;;6.70;99.90;;;;;;4948005;29;20125;-82
2023/05/27 03:02:27;;;;;;;8.85;3.13;;;6.70;99.90;;;;;;4947057;29;20475;-82
2023/05/27 03:04:55;;;;;;;14.25;3.42;;;6.90;99.90;;;;;;4926857;29;20059;-82
2023/05/27 03:07:21;;;;;;;14.07;3.88;;;6.70;99.90;;;;;;4947526;29;20087;-82
2023/05/27 03:09:46;;;;;;;13.43;3.75;;;6.70;99.90;;;;;;4956860;28;20078;-82
2023/05/27 03:12:12;;;;;;;13.65;4.00;;;6.70;99.90;;;;;;4944719;29;20122;-82
2023/05/27 03:14:38;;;;;;;12.23;3.55;;;6.70;99.90;;;;;;4945141;28;20086;-82
2023/05/27 03:17:03;;;;;;;9.27;4.32;;;6.70;99.90;;;;;;4946299;28;20047;-82
2023/05/27 03:19:29;;;;;;;14.52;4.03;;;6.70;99.90;;;;;;4955410;28;20491;-82
2023/05/27 03:21:55;;;;;;;13.00;3.97;;;6.70;99.90;;;;;;4946004;28;20516;-82
2023/05/27 03:24:21;;;;;;;11.45;3.53;;;6.70;99.90;;;;;;4946225;29;20591;-82
2023/05/27 03:26:47;;;;;;;12.35;3.97;;;6.70;99.90;;;;;;4946793;28;20085;-82
2023/05/27 03:29:13;;;;;;;10.50;4.00;;;6.70;99.90;;;;;;4933430;29;20074;-82
2023/05/27 03:31:38;;;;;;;12.45;3.47;;;6.70;99.90;;;;;;4950254;29;20142;-82
2023/05/27 03:34:04;;;;;;;14.02;3.65;;;6.70;99.90;;;;;;4946853;29;20671;-82
2023/05/27 03:36:30;;;;;;;12.98;3.72;;;6.80;99.90;;;;;;4951277;28;20774;-82
2023/05/27 03:38:56;;;;;;;12.43;3.67;;;6.70;99.90;;;;;;4951268;29;20058;-83
2023/05/27 03:41:22;;;;;;;18.08;4.30;;;6.80;99.90;;;;;;4934030;29;20420;-82
2023/05/27 03:43:48;;;;;;;13.57;3.75;;;6.80;99.90;;;;;;4949558;29;20055;-83
2023/05/27 03:46:13;;;;;;;12.07;3.50;;;6.80;99.90;;;;;;4943285;29;20098;-82
2023/05/27 03:48:39;;;;;;;13.90;3.60;;;6.80;99.90;;;;;;4947231;28;20051;-82
2023/05/27 03:51:05;;;;;;;16.63;3.70;;;6.80;99.90;;;;;;4950158;28;20051;-82
2023/05/27 03:53:31;;;;;;;12.48;3.97;;;6.90;99.90;;;;;;4943798;28;20570;-83
2023/05/27 03:55:56;;;;;;;13.40;3.65;;;6.90;99.90;;;;;;4947573;29;20039;-82
2023/05/27 03:58:22;;;;;;;11.68;3.58;;;6.90;99.90;;;;;;4933153;29;20051;-82
2023/05/27 04:00:48;;;;;;;14.45;4.40;;;7.10;99.90;;;;;;4932453;28;20055;-82
2023/05/27 04:03:14;;;;;;;10.00;3.40;;;7.00;99.90;;;;;;4946078;28;20086;-83
2023/05/27 04:05:41;;;;;;;12.45;4.03;;;7.00;99.90;;;;;;4948829;29;20102;-82
2023/05/27 04:08:07;;;;;;;10.88;4.03;;;7.00;99.90;;;;;;4944698;28;20059;-82
2023/05/27 04:10:32;;;;;;;17.40;4.07;;;7.00;99.90;;;;;;4948614;28;20047;-82
2023/05/27 04:12:58;;;;;;;15.15;4.20;;;7.00;99.90;;;;;;4949199;29;20284;-83
2023/05/27 04:15:26;;;;;;;10.68;3.05;;;7.10;99.90;;;;;;4925903;29;20047;-83
2023/05/27 04:17:51;;;;;;;16.42;4.18;;;7.10;99.90;;;;;;4943546;29;20086;-82
2023/05/27 04:20:17;;;;;;;14.55;3.53;;;7.10;99.90;;;;;;4956924;29;20048;-82
2023/05/27 04:22:44;;;;;;;19.58;4.22;;;7.10;99.90;;;;;;4981051;28;20047;-82
2023/05/27 04:25:11;;;;;;;15.13;3.55;;;7.20;99.90;;;;;;4965945;28;20739;-82
2023/05/27 04:27:37;;;;;;;17.83;3.95;;;7.20;99.90;;;;;;4962324;28;20455;-82
2023/05/27 04:30:05;;;;;;;14.57;3.58;;;7.30;99.90;;;;;;4948975;28;20046;-82
2023/05/27 04:32:37;;;;;;;16.40;3.60;;;7.30;99.90;;;;;;4950724;29;20767;-83
2023/05/27 04:35:08;;;;;;;16.25;3.75;;;7.90;99.90;;;;;;4943595;28;20043;-82
2023/05/27 04:37:35;;;;;;;;;;;7.40;99.90;;;;;;4949243;29;20055;-82
2023/05/27 04:40:03;;;;;;;16.83;3.53;;;7.40;99.90;;;;;;4949594;28;19933;-82
2023/05/27 04:42:29;;;;;;;12.77;3.38;;;7.70;99.90;;;;;;4928065;29;20055;-82
2023/05/27 04:44:55;;;;;;;16.10;3.63;;;7.40;99.90;;;;;;4930910;29;20051;-82
2023/05/27 04:47:21;;;;;;;16.77;3.83;;;7.50;99.90;;;;;;4935757;29;20462;-82
2023/05/27 04:49:47;;;;;;;17.10;3.95;;;7.50;99.90;;;;;;4948687;28;20039;-81
2023/05/27 04:52:13;;;;;;;19.90;4.47;;;7.50;99.90;;;;;;4940818;28;20052;-80
2023/05/27 04:54:38;;;;;;;15.75;4.32;;;7.60;99.90;;;;;;4947886;28;20118;-81
2023/05/27 04:57:04;;;;;;;12.85;3.55;;;7.70;99.90;;;;;;4932094;29;20066;-81
2023/05/27 04:59:45;;;;;;;20.25;4.03;;;7.70;99.90;;;;;;4942108;28;20118;-81
2023/05/27 05:02:21;;;;;;;22.20;4.35;;;7.70;99.90;;;;;;4948718;28;20784;-81
2023/05/27 05:04:47;;;;;;;14.32;4.05;;;7.80;99.90;;;;;;4947115;29;20047;-81
2023/05/27 05:07:13;;;;;;;22.20;5.30;;;7.80;99.90;;;;;;4946771;28;20670;-81
2023/05/27 05:09:38;;;;;;;19.92;5.07;;;8.30;99.90;;;;;;4948402;29;20110;-81
2023/05/27 05:12:06;;;;;;;18.77;4.68;;;8.00;99.90;;;;;;4944447;28;20489;-81
2023/05/27 05:14:31;;;;;;;20.23;5.50;;;8.00;99.90;;;;;;4944515;29;20058;-81
2023/05/27 05:16:57;;;;;;;17.77;5.18;;;8.00;99.90;;;;;;4948571;28;20784;-81
2023/05/27 05:19:23;;;;;;;21.83;4.53;;;8.00;99.90;;;;;;4932485;29;20866;-81
2023/05/27 05:21:49;;;;;;;20.27;4.90;;;8.60;99.90;;;;;;4945904;28;20817;-81
2023/05/27 05:24:14;;;;;;;19.73;4.68;;;8.50;99.90;;;;;;4939185;29;20145;-81
2023/05/27 05:26:46;;;;;;;21.10;4.53;;;8.20;99.90;;;;;;4949304;28;20044;-81
2023/05/27 05:29:11;;;;;;;;;;;8.20;99.90;;;;;;4942303;28;20408;-82
2023/05/27 05:31:37;;;;;;;18.48;4.60;;;8.20;99.90;;;;;;4943557;28;19930;-82
2023/05/27 05:34:03;;;;;;;19.55;4.47;;;8.30;99.90;;;;;;4927247;29;20056;-81
2023/05/27 05:36:29;;;;;;;22.48;4.95;;;8.60;99.90;;;;;;4916741;29;20075;-81
2023/05/27 05:38:54;;;;;;;17.73;4.40;;;8.40;99.90;;;;;;4945939;28;20058;-82
2023/05/27 05:41:20;;;;;;;22.98;5.18;;;8.70;99.90;;;;;;4948607;28;20058;-82
2023/05/27 05:43:46;;;;;;;21.38;4.45;;;8.40;99.90;;;;;;4947429;28;20082;-82
2023/05/27 05:46:15;;;;;;;29.88;4.55;;;8.50;99.90;;;;;;4927805;29;20046;-82
2023/05/27 05:48:40;;;;;;;24.85;4.97;;;8.60;99.90;;;;;;4937060;28;20047;-82
2023/05/27 05:51:06;;;;;;;21.30;4.60;;;8.70;99.90;;;;;;4947687;28;20390;-82
2023/05/27 05:53:32;;;;;;;23.90;4.40;;;8.70;99.90;;;;;;4930991;29;20072;-82
2023/05/27 05:55:58;;;;;;;24.95;4.30;;;8.80;99.90;;;;;;4946901;29;20889;-81
2023/05/27 05:58:23;;;;;;;19.63;4.45;;;8.90;99.90;;;;;;4948014;28;20061;-81
2023/05/27 06:00:49;;;;;;;22.60;5.30;;;9.00;99.90;;;;;;4943717;28;20118;-81
2023/05/27 06:03:15;;;;;;;23.17;4.72;;;9.10;99.90;;;;;;4947155;28;20055;-81
2023/05/27 06:05:40;;;;;;;24.70;4.80;;;9.20;99.90;;;;;;4945238;28;20052;-81
2023/05/27 06:08:06;;;;;;;17.90;4.18;;;9.30;99.90;;;;;;4946796;29;20039;-82
2023/05/27 06:10:32;;;;;;;21.40;4.97;;;9.40;99.90;;;;;;4947851;29;20059;-82
2023/05/27 06:12:57;;;;;;;19.38;4.60;;;9.50;99.90;;;;;;4947439;29;20051;-82
2023/05/27 06:15:23;;;;;;;21.52;4.22;;;9.60;99.90;;;;;;4945708;28;20035;-82
2023/05/27 06:17:49;;;;;;;17.85;4.22;;;9.60;99.90;;;;;;4939438;29;20235;-82
2023/05/27 06:20:15;;;;;;;19.88;4.20;;;9.70;99.90;;;;;;4922154;29;20039;-81
2023/05/27 06:22:46;;;;;;;25.88;5.45;;;9.80;99.90;;;;;;4921455;28;20047;-81
2023/05/27 06:25:12;;;;;;;21.60;4.30;;;9.90;99.90;;;;;;4937646;28;20520;-80
2023/05/27 06:27:38;;;;;;;24.83;5.03;;;10.00;99.90;;;;;;4935351;28;20047;-83
2023/05/27 06:30:04;;;;;;;24.85;4.88;;;10.10;99.90;;;;;;4939781;28;20047;-80
2023/05/27 06:32:30;;;;;;;27.20;4.57;;;10.20;99.90;;;;;;4940260;28;20058;-82
2023/05/27 06:34:56;;;;;;;24.23;4.97;;;9.90;99.90;;;;;;4934493;28;20039;-81
2023/05/27 06:37:22;;;;;;;24.95;4.70;;;10.40;99.90;;;;;;4917531;29;20739;-81
2023/05/27 06:39:48;;;;;;;22.30;4.35;;;10.50;99.90;;;;;;4954552;28;20107;-82
2023/05/27 06:42:14;;;;;;;20.70;4.20;;;10.50;99.90;;;;;;4917184;29;20593;-82
2023/05/27 06:44:41;;;;;;;23.27;4.47;;;10.50;99.90;;;;;;4944073;28;20054;-81
2023/05/27 06:47:09;;;;;;;20.05;4.70;;;10.60;99.90;;;;;;4939694;28;20050;-82
2023/05/27 06:49:35;;;;;;;18.40;5.32;;;10.60;99.90;;;;;;4961831;28;20039;-83
2023/05/27 06:52:00;;;;;;;17.52;4.22;;;10.60;99.90;;;;;;4941796;28;20086;-83
2023/05/27 06:54:26;;;;;;;21.83;4.40;;;10.70;99.90;;;;;;4924863;29;20044;-82
2023/05/27 06:56:52;;;;;;;18.30;4.20;;;10.70;99.90;;;;;;4920254;28;20059;-82
2023/05/27 06:59:18;;;;;;;23.17;4.18;;;10.80;99.90;;;;;;4941582;28;20059;-84
2023/05/27 07:01:44;;;;;;;17.98;4.65;;;10.80;99.90;;;;;;4945844;28;20051;-82
2023/05/27 07:04:09;;;;;;;25.42;4.35;;;11.00;99.90;;;;;;4921790;28;20066;-82
2023/05/27 07:06:37;;;;;;;22.25;4.10;;;11.00;99.90;;;;;;4934332;28;20484;-84
2023/05/27 07:09:03;;;;;;;25.77;5.35;;;11.40;99.90;;;;;;4937273;28;20055;-83
2023/05/27 07:11:28;;;;;;;23.70;4.55;;;11.10;99.90;;;;;;4937746;28;20054;-81
2023/05/27 07:13:54;;;;;;;25.08;5.57;;;11.20;99.90;;;;;;4924173;29;20039;-82
2023/05/27 07:16:20;;;;;;;19.77;4.20;;;11.30;99.90;;;;;;4941672;28;20150;-84
2023/05/27 07:18:46;;;;;;;17.20;3.97;;;11.40;99.90;;;;;;4938930;29;20180;-83
2023/05/27 07:21:12;;;;;;;27.25;5.20;;;11.50;99.90;;;;;;4920443;29;20059;-82
2023/05/27 07:23:37;;;;;;;15.63;3.80;;;11.60;99.90;;;;;;4957397;28;20078;-80
2023/05/27 07:26:03;;;;;;;27.05;4.22;;;11.70;99.90;;;;;;4943455;28;20078;-83
2023/05/27 07:28:29;;;;;;;19.27;4.28;;;11.80;99.90;;;;;;4940296;28;20043;-83
2023/05/27 07:30:55;;;;;;;19.20;4.30;;;11.90;99.90;;;;;;4944738;29;20038;-81
2023/05/27 07:33:21;;;;;;;22.05;4.50;;;12.00;99.90;;;;;;4941844;28;20043;-82
2023/05/27 07:35:47;;;;;;;16.95;4.20;;;12.10;99.90;;;;;;4945195;29;20050;-82
2023/05/27 07:38:12;;;;;;;23.20;4.78;;;12.30;99.90;;;;;;4944942;29;20404;-81
2023/05/27 07:40:38;;;;;;;24.92;4.35;;;12.40;99.90;;;;;;4926217;29;20103;-81
2023/05/27 07:43:04;;;;;;;19.90;4.13;;;12.50;99.90;;;;;;4909519;29;20596;-82
2023/05/27 07:45:30;;;;;;;18.38;4.10;;;12.70;99.90;;;;;;4939598;29;20043;-82
2023/05/27 07:47:56;;;;;;;23.35;4.38;;;12.80;99.90;;;;;;4944744;29;20082;-80
2023/05/27 07:50:22;;;;;;;18.88;4.57;;;12.90;99.90;;;;;;4929731;29;20087;-82
2023/05/27 07:52:47;;;;;;;21.38;4.43;;;13.10;99.90;;;;;;4943924;29;20065;-82
2023/05/27 07:55:13;;;;;;;19.33;3.95;;;13.20;99.90;;;;;;4928505;29;20070;-83
2023/05/27 07:57:39;;;;;;;13.80;4.22;;;13.20;99.90;;;;;;4930561;29;20082;-82
2023/05/27 08:00:07;;;;;;;20.92;4.90;;;13.20;99.90;;;;;;4946010;29;20065;-84
2023/05/27 08:02:32;;;;;;;24.00;4.90;;;13.20;99.90;;;;;;4945760;28;20057;-82
2023/05/27 08:04:58;;;;;;;19.25;4.20;;;13.40;99.90;;;;;;4945340;28;20050;-81
2023/05/27 08:07:24;;;;;;;20.52;4.20;;;13.30;99.90;;;;;;4945464;29;20047;-82
2023/05/27 08:09:50;;;;;;;15.57;4.43;;;13.30;99.90;;;;;;4947689;29;20055;-82
2023/05/27 08:12:15;;;;;;;19.27;4.22;;;13.30;99.90;;;;;;4946691;29;20055;-82
2023/05/27 08:14:42;;;;;;;20.50;4.70;;;13.30;99.90;;;;;;4947676;28;20615;-82
2023/05/27 08:17:07;;;;;;;21.70;4.88;;;13.30;99.90;;;;;;4949827;29;20051;-83
2023/05/27 08:19:33;;;;;;;21.75;3.88;;;13.40;99.90;;;;;;4933995;29;20101;-78
2023/05/27 08:21:59;;;;;;;19.30;4.45;;;13.40;99.90;;;;;;4949382;29;20102;-80
2023/05/27 08:24:24;;;;;;;15.68;4.30;;;13.40;99.90;;;;;;4948440;29;20083;-79
2023/05/27 08:26:50;;;;;;;21.20;4.32;;;13.50;99.90;;;;;;4945637;29;20106;-79
2023/05/27 08:29:16;;;;;;;17.10;4.50;;;13.60;99.90;;;;;;4932878;29;20209;-80
2023/05/27 08:31:42;;;;;;;21.42;4.88;;;13.80;99.90;;;;;;4949537;29;20043;-80
2023/05/27 08:34:08;;;;;;;21.45;5.85;;;13.90;99.90;;;;;;4943463;29;21239;-79
2023/05/27 08:36:33;;;;;;;20.42;4.78;;;14.00;99.90;;;;;;4926140;29;20571;-80
2023/05/27 08:39:00;;;;;;;23.83;4.72;;;14.20;99.90;;;;;;4945354;29;20572;-82
2023/05/27 08:41:27;;;;;;;16.58;4.15;;;14.30;99.90;;;;;;4945123;29;20109;-79
2023/05/27 08:43:53;;;;;;;23.48;5.38;;;14.40;99.90;;;;;;4947099;29;20043;-80
2023/05/27 08:46:20;;;;;;;16.05;4.47;;;14.50;99.90;;;;;;4948418;29;20054;-80
2023/05/27 08:48:47;;;;;;;14.95;4.35;;;14.60;99.90;;;;;;4959352;28;20764;-81
2023/05/27 08:51:16;;;;;;;19.45;4.40;;;14.60;99.90;;;;;;4945934;29;20094;-81
2023/05/27 08:53:46;;;;;;;19.15;5.45;;;14.70;99.90;;;;;;4929907;29;20105;-81
2023/05/27 08:56:15;;;;;;;16.27;4.45;;;14.70;99.90;;;;;;4927980;29;20405;-81
2023/05/27 08:58:42;;;;;;;17.10;4.88;;;14.80;99.90;;;;;;4948298;29;20054;-81
2023/05/27 09:01:09;;;;;;;24.48;5.88;;;14.80;99.90;;;;;;4930978;29;20412;-81
2023/05/27 09:03:35;;;;;;;20.67;6.00;;;14.80;99.90;;;;;;4941732;29;20057;-80
2023/05/27 09:06:03;;;;;;;15.50;5.30;;;14.80;99.90;;;;;;4949423;29;20054;-81
2023/05/27 09:08:30;;;;;;;18.88;5.97;;;14.90;99.90;;;;;;4947604;29;20565;-82
2023/05/27 09:10:56;;;;;;;24.60;5.68;;;14.90;99.90;;;;;;4933804;29;20051;-82
2023/05/27 09:13:29;;;;;;;23.70;5.97;;;15.00;99.90;;;;;;4949730;29;20079;-81
2023/05/27 09:16:03;;;;;;;21.42;5.75;;;15.10;99.90;;;;;;4966837;28;20197;-82
2023/05/27 09:18:31;;;;;;;21.83;5.72;;;15.30;99.90;;;;;;4957014;29;20412;-81
2023/05/27 09:20:57;;;;;;;20.13;5.50;;;15.20;99.90;;;;;;4950470;28;20110;-81
2023/05/27 09:23:23;;;;;;;21.05;5.03;;;15.30;99.90;;;;;;4923510;29;20093;-81
2023/05/27 09:25:50;;;;;;;20.83;5.65;;;15.30;99.90;;;;;;4921388;29;20134;-80
2023/05/27 09:28:26;;;;;;;19.98;5.45;;;15.40;99.90;;;;;;4952575;28;20234;-81
2023/05/27 09:31:04;;;;;;;18.98;5.25;;;15.50;99.90;;;;;;4937795;29;20051;-81
2023/05/27 09:33:38;;;;;;;22.13;5.80;;;15.60;99.90;;;;;;4932760;29;20077;-81
2023/05/27 09:36:05;;;;;;;17.17;4.85;;;15.60;99.90;;;;;;4937601;29;20756;-81
2023/05/27 09:38:32;;;;;;;16.50;4.40;;;15.60;99.90;;;;;;4943235;29;20043;-82
2023/05/27 09:40:59;;;;;;;17.02;5.18;;;15.70;99.90;;;;;;4945979;29;20043;-82
2023/05/27 09:43:26;;;;;;;20.10;5.68;;;15.80;99.90;;;;;;4948642;29;20051;-79
2023/05/27 09:46:02;;;;;;;22.98;5.30;;;15.90;99.90;;;;;;4929491;29;20054;-79
2023/05/27 09:48:31;;;;;;;15.68;4.47;;;15.90;99.90;;;;;;4928518;29;20050;-79
2023/05/27 09:51:01;;;;;;;18.60;5.13;;;15.90;99.90;;;;;;4942048;29;20904;-79
2023/05/27 09:53:27;;;;;;;18.15;4.75;;;16.00;99.90;;;;;;4942754;29;20039;-78
2023/05/27 09:55:56;;;;;;;27.77;5.32;;;16.10;99.90;;;;;;4946771;29;20051;-80
2023/05/27 09:58:24;;;;;;;19.00;4.88;;;16.10;99.90;;;;;;4937557;29;20134;-86
2023/05/27 10:00:50;;;;;;;14.30;4.18;;;16.10;99.90;;;;;;4940764;28;20043;-84
2023/05/27 10:03:20;;;;;;;19.88;5.47;;;16.20;99.90;;;;;;4944789;28;20412;-84
2023/05/27 10:05:48;;;;;;;17.55;4.35;;;16.20;99.90;;;;;;4945310;28;20098;-84
2023/05/27 10:08:14;;;;;;;18.75;4.65;;;16.20;99.90;;;;;;4945529;28;20051;-84
2023/05/27 10:10:40;;;;;;;18.00;4.63;;;16.30;99.90;;;;;;4947274;29;20515;-84
2023/05/27 10:13:06;;;;;;;16.60;4.50;;;16.40;99.90;;;;;;4961947;28;20055;-84
2023/05/27 10:15:33;;;;;;;20.77;5.05;;;16.40;99.90;;;;;;4948772;28;20448;-83
2023/05/27 10:18:06;;;;;;;18.05;4.35;;;16.50;99.90;;;;;;4962744;28;20043;-85
2023/05/27 10:20:32;;;;;;;18.80;3.80;;;16.60;99.90;;;;;;4955221;28;20050;-84
2023/05/27 10:23:20;;;;;;;19.48;4.95;;;16.70;99.90;;;;;;4940694;29;20489;-85
2023/05/27 10:25:55;;;;;;;19.65;4.28;;;16.70;99.90;;;;;;4959522;28;20150;-83
2023/05/27 10:28:25;;;;;;;17.35;4.50;;;16.80;99.90;;;;;;4947641;28;20057;-85
2023/05/27 10:30:51;;;;;;;21.42;4.25;;;16.80;99.90;;;;;;4929703;29;20455;-85
2023/05/27 10:33:30;;;;;;;16.98;4.28;;;16.90;99.90;;;;;;4922178;29;20055;-83
2023/05/27 10:35:56;;;;;;;18.55;4.63;;;16.90;99.90;;;;;;4937779;29;20686;-83
2023/05/27 10:38:23;;;;;;;17.15;4.40;;;17.00;99.90;;;;;;4928249;28;20044;-84
2023/05/27 10:41:00;;;;;;;19.15;3.90;;;17.00;99.90;;;;;;4929288;28;20140;-84
2023/05/27 10:43:29;;;;;;;20.13;5.18;;;17.10;99.90;;;;;;4929503;29;21383;-84
2023/05/27 10:46:03;;;;;;;19.27;5.78;;;17.10;99.90;;;;;;4927713;29;20195;-84
2023/05/27 10:48:28;;;;;;;17.73;4.78;;;17.20;99.90;;;;;;4931012;28;20055;-85
2023/05/27 10:50:58;;;;;;;14.45;4.35;;;17.20;99.90;;;;;;4926806;29;20051;-84
2023/05/27 10:53:29;;;;;;;21.80;4.85;;;17.40;99.90;;;;;;4927883;28;20055;-84
2023/05/27 10:55:57;;;;;;;;;;;17.30;99.90;;;;;;4931262;29;20063;-84
2023/05/27 10:58:23;;;;;;;19.05;5.05;;;17.40;99.90;;;;;;4930718;28;19973;-84
2023/05/27 11:00:52;;;;;;;16.15;4.53;;;17.40;99.90;;;;;;4930006;29;20525;-83
2023/05/27 11:03:22;;;;;;;14.05;4.60;;;17.40;99.90;;;;;;4945507;28;20158;-83
2023/05/27 11:06:06;;;;;;;18.90;5.43;;;17.50;99.90;;;;;;4931609;29;20043;-84
2023/05/27 11:08:37;;;;;;;15.02;4.40;;;17.50;99.90;;;;;;4933450;29;20103;-83
2023/05/27 11:11:10;;;;;;;19.77;4.55;;;17.60;99.90;;;;;;4911775;29;20051;-83
2023/05/27 11:13:40;;;;;;;17.48;4.63;;;17.60;99.90;;;;;;4932571;29;20133;-82
2023/05/27 11:16:07;;;;;;;18.13;4.57;;;17.60;99.90;;;;;;4931975;28;20055;-82
2023/05/27 11:18:40;;;;;;;16.73;4.40;;;17.60;99.90;;;;;;4928787;28;20059;-83
2023/05/27 11:21:07;;;;;;;18.25;4.97;;;17.70;99.90;;;;;;4910031;29;20047;-83
2023/05/27 11:23:39;;;;;;;16.23;4.45;;;17.70;99.90;;;;;;4932387;28;20102;-84
2023/05/27 11:26:21;;;;;;;20.98;5.38;;;17.80;99.90;;;;;;4931787;28;20035;-82
2023/05/27 11:28:54;;;;;;;17.33;5.05;;;17.80;99.90;;;;;;4946902;28;20079;-81
2023/05/27 11:31:26;;;;;;;19.13;4.93;;;17.90;99.90;;;;;;4928961;29;20296;-85
2023/05/27 11:33:52;;;;;;;17.25;4.80;;;17.90;99.90;;;;;;4910921;29;20058;-83
2023/05/27 11:36:23;;;;;;;17.52;4.95;;;17.90;99.90;;;;;;4934150;28;20055;-83
2023/05/27 11:39:02;;;;;;;14.73;4.55;;;18.00;99.90;;;;;;4942337;28;20058;-82
2023/05/27 11:41:30;;;;;;;17.38;5.18;;;18.00;99.90;;;;;;4927726;28;20057;-82
2023/05/27 11:44:06;;;;;;;14.38;4.78;;;18.00;99.90;;;;;;4929701;29;20706;-83
2023/05/27 11:46:40;;;;;;;24.30;5.28;;;18.10;99.90;;;;;;4947394;28;20939;-82
2023/05/27 11:49:08;;;;;;;18.77;5.03;;;18.10;99.90;;;;;;4932939;28;20070;-84
2023/05/27 11:51:36;;;;;;;17.35;5.63;;;18.20;99.90;;;;;;4928489;28;20043;-82
2023/05/27 11:54:02;;;;;;;16.67;4.97;;;18.30;99.90;;;;;;4930989;29;20048;-82
2023/05/27 11:56:29;;;;;;;15.93;4.65;;;18.30;99.90;;;;;;4934811;29;20059;-84
2023/05/27 11:58:55;;;;;;;17.52;5.60;;;18.30;99.90;;;;;;4923575;29;20055;-83
2023/05/27 12:01:21;;;;;;;14.90;4.70;;;18.40;99.90;;;;;;4929589;28;20047;-83
2023/05/27 12:03:47;;;;;;;17.40;4.57;;;18.40;99.90;;;;;;4928838;28;20048;-83
2023/05/27 12:06:13;;;;;;;16.92;5.13;;;18.30;99.90;;;;;;4933981;29;20051;-84
2023/05/27 12:08:40;;;;;;;19.25;5.30;;;18.40;99.90;;;;;;4929402;28;20158;-83
2023/05/27 12:11:06;;;;;;;17.60;5.10;;;18.40;99.90;;;;;;4928572;29;20050;-84
2023/05/27 12:13:32;;;;;;;13.73;4.82;;;18.40;99.90;;;;;;4931199;28;20105;-83
2023/05/27 12:15:58;;;;;;;21.65;4.85;;;18.40;99.90;;;;;;4931231;28;20044;-84
2023/05/27 12:18:25;;;;;;;14.95;4.78;;;18.40;99.90;;;;;;4932111;28;20054;-83
2023/05/27 12:20:51;;;;;;;22.50;5.60;;;18.40;99.90;;;;;;4917036;29;20057;-81
2023/05/27 12:23:17;;;;;;;20.40;5.10;;;18.40;99.90;;;;;;4934176;28;20074;-84
2023/05/27 12:25:43;;;;;;;17.23;5.32;;;18.40;99.90;;;;;;4932418;28;20055;-81
2023/05/27 12:28:10;;;;;;;12.93;4.28;;;18.40;99.90;;;;;;4932609;29;20163;-83
2023/05/27 12:30:37;;;;;;;19.17;5.32;;;18.40;99.90;;;;;;4930232;29;20878;-82
2023/05/27 12:33:06;;;;;;;20.88;5.40;;;18.40;99.90;;;;;;4926869;28;20062;-82
2023/05/27 12:35:33;;;;;;;21.95;6.10;;;18.50;99.90;;;;;;4928346;28;20784;-86
2023/05/27 12:38:01;;;;;;;20.17;5.23;;;18.50;99.90;;;;;;4915446;29;20114;-86
2023/05/27 12:40:27;;;;;;;18.35;5.72;;;18.50;99.90;;;;;;4924175;29;21033;-76
2023/05/27 12:42:53;;;;;;;16.00;4.68;;;18.60;99.90;;;;;;4925697;29;20074;-78